TVY Airport (Bolinder Field-Tooele Valley) Information

FAA: TVY - ICAO: KTVY

TVY Airport Location

State Utah
County Tooele
City Tooele
TVY Airport is 5 miles northwest of Tooele, UT.
Latitude 40-36-45.2000N
Longitude 112-21-02.8000W
Elevation 4,321ft

KTVY Airport METARs

METAR KTVY 280115Z AUTO 14006KT 10SM BKN070 09/05 A3030 RMK AO2
Altimeter 30.30"
Temperature 9.0°C (48.2°F)
Wind 140° at 6KT
Clouds broken at 7,000ft
Visibility 10.0mi
Time observed: 2021-10-28T01:15:00Z

TVY Airport Details

Status Operational
Activation July 1977
Ownership Public
Usage Public
Chart SALT LAKE CITY
ATC on-site No
Beacon schedule sunset-sunrise
Beacon color clear green

TVY Airport Contacts

Owner SALT LAKE CITY DEPT OF AIRPORTS
Owner address PO BOX 145550, SALT LAKE CITY, UT 84114-5550
Owner phone 801-575-2401
Manager KENT JOHNSON
Manager address 250 NORTH 2370 WEST, SALT LAKE CITY, UT 84116
Manager phone (801) 321-3362

TVY Airport (Bolinder Field-Tooele Valley) Radio Frequencies

TVY (Airport) Radio Frequencies

UNICOM 123
Common traffic advisory frequency (CTAF) 123